Terminal Aerodrome Forecast
Issued by NWS Melbourne, FL

Current Version | Previous Version | Text Only | Print | Product List | Glossary On
Versions: 1 2 3 4 5 6 7 8 9 10 11 12
262
FTUS42 KMLB 211735
TAFMLB
TAF
KMLB 211735Z 2118/2218 06008KT P6SM FEW025
     FM220400 08004KT P6SM SKC
     FM220800 10003KT 5SM BR SCT008
     FM221400 13010KT P6SM FEW025 BKN050=

USA.gov is the U.S. government's official web portal to all federal, state and local government web resources and services.